createdAt,value
2023-03-29T00:01:35.755Z,100484.09
2023-03-29T00:04:05.180Z,100488.47
2023-03-29T00:06:33.095Z,100479.75
2023-03-29T00:09:01.946Z,100483.22
2023-03-29T00:11:29.325Z,100484.09
2023-03-29T00:13:56.390Z,100471.03
2023-03-29T00:16:24.870Z,100483.25
2023-03-29T00:18:51.897Z,100478.91
2023-03-29T00:21:19.211Z,100494.56
2023-03-29T00:23:46.238Z,100493.69
2023-03-29T00:26:13.597Z,100473.66
2023-03-29T00:28:40.609Z,100490.22
2023-03-29T00:31:11.277Z,100501.56
2023-03-29T00:33:38.984Z,100482.38
2023-03-29T00:36:08.897Z,100490.22
2023-03-29T00:38:37.246Z,100505.91
2023-03-29T00:41:06.983Z,100510.28
2023-03-29T00:43:52.417Z,100496.34
2023-03-29T00:46:19.931Z,100499.81
2023-03-29T00:48:48.790Z,100492.00
2023-03-29T00:51:19.573Z,100507.66
2023-03-29T00:53:50.901Z,100505.06
2023-03-29T00:56:32.673Z,100513.78
2023-03-29T00:59:10.203Z,100508.53
2023-03-29T01:02:14.244Z,100512.03
2023-03-29T01:04:48.719Z,100484.16
2023-03-29T01:07:35.437Z,100519.03
2023-03-29T01:10:22.818Z,100515.53
2023-03-29T01:12:56.480Z,100521.63
2023-03-29T01:15:26.692Z,100515.53
2023-03-29T01:17:55.904Z,100524.22
2023-03-29T01:20:43.566Z,100521.63
2023-03-29T01:23:14.084Z,100512.91
2023-03-29T01:25:53.608Z,100520.75
2023-03-29T01:28:35.809Z,100527.72
2023-03-29T01:31:11.987Z,100528.59
2023-03-29T01:33:44.630Z,100530.34
2023-03-29T01:36:21.271Z,100542.53
2023-03-29T01:39:00.849Z,100532.97
2023-03-29T01:41:40.424Z,100522.50
2023-03-29T01:44:14.906Z,100536.44
2023-03-29T01:46:56.292Z,100538.16
2023-03-29T01:49:42.775Z,100535.56
2023-03-29T01:52:18.983Z,100539.03
2023-03-29T01:55:01.253Z,100533.84
2023-03-29T01:57:31.304Z,100515.56
2023-03-29T02:00:00.249Z,100546.00
2023-03-29T02:02:30.554Z,100552.97
2023-03-29T02:04:59.425Z,100529.44
2023-03-29T02:07:30.885Z,100546.88
2023-03-29T02:09:59.633Z,100559.06
2023-03-29T02:12:27.139Z,100550.34
2023-03-29T02:14:56.722Z,100546.88
2023-03-29T02:17:25.752Z,100543.38
2023-03-29T02:20:14.760Z,100564.28
2023-03-29T02:22:50.327Z,100565.19
2023-03-29T02:25:18.821Z,100566.03
2023-03-29T02:27:46.282Z,100573.88
2023-03-29T02:30:17.274Z,100570.38
2023-03-29T02:32:54.118Z,100566.91
2023-03-29T02:35:34.320Z,100581.72
2023-03-29T02:38:04.455Z,100587.81
2023-03-29T02:40:33.412Z,100594.78
2023-03-29T02:43:02.255Z,100603.50
2023-03-29T02:45:31.095Z,100606.94
2023-03-29T02:48:03.853Z,100607.81
2023-03-29T02:50:37.299Z,100606.94
2023-03-29T02:53:11.725Z,100606.09
2023-03-29T02:55:39.550Z,100599.97
2023-03-29T02:58:10.906Z,100603.44
2023-03-29T03:00:49.262Z,100600.84
2023-03-29T03:03:16.849Z,100620.88
2023-03-29T03:05:44.628Z,100608.66
2023-03-29T03:08:11.615Z,100620.84
2023-03-29T03:10:41.113Z,100619.97
2023-03-29T03:13:08.099Z,100621.72
2023-03-29T03:15:38.859Z,100614.75
2023-03-29T03:18:05.975Z,100621.72
2023-03-29T03:20:33.589Z,100607.78
2023-03-29T03:23:03.491Z,100622.59
2023-03-29T03:25:31.856Z,100620.84
2023-03-29T03:27:59.196Z,100620.84
2023-03-29T03:30:27.253Z,100635.63
2023-03-29T03:32:57.685Z,100626.91
2023-03-29T03:35:25.309Z,100624.31
2023-03-29T03:37:52.453Z,100630.38
2023-03-29T03:40:20.927Z,100630.38
2023-03-29T03:42:47.939Z,100632.13
2023-03-29T03:45:17.878Z,100637.34
2023-03-29T03:47:44.842Z,100640.78
2023-03-29T03:50:12.230Z,100636.44
2023-03-29T03:52:39.654Z,100642.53
2023-03-29T03:55:08.333Z,100646.00
2023-03-29T03:57:38.673Z,100646.88
2023-03-29T04:00:24.454Z,100665.16
2023-03-29T04:02:54.609Z,100658.19
2023-03-29T04:05:22.766Z,100653.84
2023-03-29T04:07:49.782Z,100666.06
2023-03-29T04:10:17.240Z,100667.78
2023-03-29T04:12:44.279Z,100673.94
2023-03-29T04:15:12.383Z,100673.09
2023-03-29T04:17:41.951Z,100680.13
2023-03-29T04:20:37.334Z,100677.53
2023-03-29T04:23:04.502Z,100679.28
2023-03-29T04:25:31.891Z,100674.94
2023-03-29T04:28:07.143Z,100681.94
2023-03-29T04:30:36.419Z,100679.31
2023-03-29T04:33:04.014Z,100673.25
2023-03-29T04:35:31.950Z,100674.16
2023-03-29T04:37:59.064Z,100680.25
2023-03-29T04:40:27.169Z,100675.00
2023-03-29T04:42:54.605Z,100684.56
2023-03-29T04:45:23.599Z,100689.72
2023-03-29T04:47:50.971Z,100700.97
2023-03-29T04:50:23.984Z,100703.59
2023-03-29T04:52:51.369Z,100698.38
2023-03-29T04:55:18.761Z,100699.28
2023-03-29T04:57:47.065Z,100713.31
2023-03-29T05:00:16.966Z,100702.84
2023-03-29T05:02:45.010Z,100705.50
2023-03-29T05:05:14.033Z,100708.16
2023-03-29T05:07:41.380Z,100686.34
2023-03-29T05:10:09.364Z,100709.91
2023-03-29T05:12:36.924Z,100713.41
2023-03-29T05:15:05.582Z,100704.69
2023-03-29T05:17:32.636Z,100720.38
2023-03-29T05:20:01.451Z,100717.78
2023-03-29T05:22:29.822Z,100715.16
2023-03-29T05:24:57.644Z,100710.75
2023-03-29T05:27:24.860Z,100716.91
2023-03-29T05:29:52.356Z,100724.75
2023-03-29T05:32:19.834Z,100704.69
2023-03-29T05:34:47.169Z,100700.34
2023-03-29T05:37:14.356Z,100713.41
2023-03-29T05:39:43.116Z,100720.38
2023-03-29T05:42:13.816Z,100715.13
2023-03-29T05:44:41.654Z,100714.25
2023-03-29T05:47:08.704Z,100730.84
2023-03-29T05:49:38.159Z,100705.53
2023-03-29T05:52:06.817Z,100728.22
2023-03-29T05:54:34.475Z,100736.94
2023-03-29T05:57:16.428Z,100729.97
2023-03-29T05:59:43.816Z,100723.88
2023-03-29T06:02:12.522Z,100736.97
2023-03-29T06:04:40.042Z,100739.56
2023-03-29T06:07:07.246Z,100736.97
2023-03-29T06:09:34.812Z,100724.75
2023-03-29T06:12:03.317Z,100718.63
2023-03-29T06:14:31.321Z,100745.69
2023-03-29T06:16:58.728Z,100760.53
2023-03-29T06:19:26.556Z,100757.91
2023-03-29T06:21:54.403Z,100759.66
2023-03-29T06:24:22.847Z,100770.13
2023-03-29T06:26:52.998Z,100769.25
2023-03-29T06:29:21.207Z,100766.59
2023-03-29T06:31:49.523Z,100778.84
2023-03-29T06:34:21.096Z,100723.84
2023-03-29T06:36:48.263Z,100776.19
2023-03-29T06:39:15.664Z,100782.31
2023-03-29T06:41:42.683Z,100777.06
2023-03-29T06:44:10.378Z,100780.56
2023-03-29T06:46:37.752Z,100782.34
2023-03-29T06:49:05.410Z,100783.19
2023-03-29T06:51:35.033Z,100780.56
2023-03-29T06:54:04.232Z,100790.16
2023-03-29T06:56:33.039Z,100798.00
2023-03-29T06:59:01.438Z,100801.44
2023-03-29T07:01:30.230Z,100784.81
2023-03-29T07:04:06.919Z,100815.34
2023-03-29T07:06:35.178Z,100800.50
2023-03-29T07:09:09.217Z,100829.34
2023-03-29T07:11:37.015Z,100823.19
2023-03-29T07:14:05.735Z,100840.66
2023-03-29T07:16:42.059Z,100826.63
2023-03-29T07:19:10.875Z,100823.09
2023-03-29T07:21:38.018Z,100846.66
2023-03-29T07:24:06.946Z,100833.53
2023-03-29T07:26:34.061Z,100839.69
2023-03-29T07:29:01.621Z,100817.91
2023-03-29T07:31:29.794Z,100832.81
2023-03-29T07:33:57.605Z,100826.66
2023-03-29T07:36:25.353Z,100831.06
2023-03-29T07:38:57.140Z,100834.59
2023-03-29T07:41:24.213Z,100815.41
2023-03-29T07:43:52.136Z,100852.16
2023-03-29T07:46:19.834Z,100855.66
2023-03-29T07:48:47.584Z,100820.69
2023-03-29T07:51:15.324Z,100827.63
2023-03-29T07:53:43.173Z,100837.06
2023-03-29T07:56:10.103Z,100815.13
2023-03-29T07:58:37.889Z,100839.63
2023-03-29T08:01:06.017Z,100844.84
2023-03-29T08:03:34.918Z,100826.44
2023-03-29T08:06:04.253Z,100834.28
2023-03-29T08:08:35.260Z,100848.28
2023-03-29T08:11:04.088Z,100822.94
2023-03-29T08:13:32.304Z,100844.81
2023-03-29T08:16:00.368Z,100846.44
2023-03-29T08:18:28.365Z,100841.03
2023-03-29T08:20:55.441Z,100862.88
2023-03-29T08:23:22.946Z,100865.50
2023-03-29T08:25:50.000Z,100851.28
2023-03-29T08:28:18.045Z,100857.00
2023-03-29T08:30:45.429Z,100833.50
2023-03-29T08:33:12.920Z,100850.13
2023-03-29T08:35:40.131Z,100834.94
2023-03-29T08:38:08.436Z,100856.00
2023-03-29T08:40:35.477Z,100842.28
2023-03-29T08:43:06.225Z,100858.13
2023-03-29T08:45:44.501Z,100828.00
2023-03-29T08:48:32.195Z,100835.91
2023-03-29T08:51:09.821Z,100832.25
2023-03-29T08:53:45.212Z,100850.66
2023-03-29T08:56:16.293Z,100835.38
2023-03-29T08:58:45.162Z,100829.28
2023-03-29T09:01:12.781Z,100862.97
2023-03-29T09:03:46.190Z,100815.69
2023-03-29T09:06:14.293Z,100839.06
2023-03-29T09:08:50.334Z,100882.22
2023-03-29T09:11:26.770Z,100862.13
2023-03-29T09:14:15.709Z,100854.28
2023-03-29T09:16:58.757Z,100850.41
2023-03-29T09:19:39.951Z,100876.13
2023-03-29T09:22:22.655Z,100860.72
2023-03-29T09:25:15.555Z,100866.03
2023-03-29T09:27:50.451Z,100879.78
2023-03-29T09:30:28.120Z,100858.69
2023-03-29T09:33:04.922Z,100883.03
2023-03-29T09:35:38.856Z,100888.56
2023-03-29T09:38:11.297Z,100865.06
2023-03-29T09:40:50.046Z,100898.16
2023-03-29T09:43:37.741Z,100901.09
2023-03-29T09:46:16.153Z,100902.09
2023-03-29T09:48:57.644Z,100906.72
2023-03-29T09:51:27.831Z,100903.50
2023-03-29T09:53:57.132Z,100924.69
2023-03-29T09:56:24.741Z,100919.56
2023-03-29T09:58:53.196Z,100927.47
2023-03-29T10:01:20.524Z,100925.69
2023-03-29T10:03:50.142Z,100911.28
2023-03-29T10:06:20.404Z,100912.84
2023-03-29T10:08:51.871Z,100911.94
2023-03-29T10:11:28.971Z,100908.56
2023-03-29T10:14:02.129Z,100891.16
2023-03-29T10:16:37.061Z,100909.69
2023-03-29T10:19:35.006Z,100912.53
2023-03-29T10:22:05.543Z,100910.81
2023-03-29T10:24:32.579Z,100919.56
2023-03-29T10:27:07.274Z,100933.56
2023-03-29T10:29:41.254Z,100910.97
2023-03-29T10:32:23.165Z,100907.38
2023-03-29T10:34:52.393Z,100888.94
2023-03-29T10:37:21.331Z,100917.13
2023-03-29T10:39:49.201Z,100913.72
2023-03-29T10:42:23.778Z,100911.22
2023-03-29T10:44:58.637Z,100938.41
2023-03-29T10:47:31.712Z,100944.47
2023-03-29T10:49:59.053Z,100928.72
2023-03-29T10:52:26.770Z,100943.59
2023-03-29T10:54:56.420Z,100938.19
2023-03-29T10:57:45.168Z,100930.50
2023-03-29T11:00:31.881Z,100920.56
2023-03-29T11:03:17.621Z,100914.06
2023-03-29T11:06:14.916Z,100918.03
2023-03-29T11:08:58.385Z,100911.56
2023-03-29T11:11:31.685Z,100911.22
2023-03-29T11:14:21.052Z,100928.16
2023-03-29T11:17:15.758Z,100940.63
2023-03-29T11:20:11.267Z,100936.47
2023-03-29T11:22:45.109Z,100922.59
2023-03-29T11:25:49.556Z,100926.13
2023-03-29T11:28:47.837Z,100944.53
2023-03-29T11:34:36.788Z,100932.25
2023-03-29T11:37:10.565Z,100944.50
2023-03-29T11:40:15.495Z,100942.72
2023-03-29T11:42:48.837Z,100935.59
2023-03-29T11:45:23.006Z,100938.22
2023-03-29T11:47:57.311Z,100943.53
2023-03-29T11:51:00.219Z,100948.97
2023-03-29T11:54:02.193Z,100944.63
2023-03-29T11:56:42.315Z,100941.06
2023-03-29T11:59:48.826Z,100931.38
2023-03-29T12:02:44.857Z,100929.50
2023-03-29T12:05:25.177Z,100931.16
2023-03-29T12:08:14.525Z,100913.59
2023-03-29T12:11:33.758Z,100935.53
2023-03-29T12:14:12.855Z,100936.47
2023-03-29T12:16:46.145Z,100940.09
2023-03-29T12:19:21.891Z,100932.25
2023-03-29T12:21:51.583Z,100951.53
2023-03-29T12:24:20.727Z,100952.47
2023-03-29T12:27:12.128Z,100956.88
2023-03-29T12:29:48.542Z,100949.03
2023-03-29T12:32:21.817Z,100956.00
2023-03-29T12:34:59.845Z,100958.59
2023-03-29T12:37:44.622Z,100944.34
2023-03-29T12:40:16.847Z,100947.84
2023-03-29T12:43:01.020Z,100942.72
2023-03-29T12:45:40.222Z,100933.66
2023-03-29T12:48:09.028Z,100941.69
2023-03-29T12:50:47.242Z,100952.22
2023-03-29T12:53:31.334Z,100951.41
2023-03-29T12:56:12.728Z,100964.53
2023-03-29T12:58:40.114Z,100950.56
2023-03-29T13:01:08.270Z,100965.50
2023-03-29T13:03:35.749Z,100973.38
2023-03-29T13:06:06.180Z,100960.28
2023-03-29T13:08:40.897Z,100975.13
2023-03-29T13:11:23.704Z,100962.84
2023-03-29T13:13:52.478Z,100965.47
2023-03-29T13:16:31.456Z,100966.31
2023-03-29T13:18:58.718Z,100971.59
2023-03-29T13:21:40.441Z,100983.03
2023-03-29T13:24:29.737Z,100976.94
2023-03-29T13:27:19.058Z,100983.97
2023-03-29T13:30:34.580Z,100976.97
2023-03-29T13:33:12.077Z,100983.06
2023-03-29T13:35:52.048Z,100973.41
2023-03-29T13:38:28.790Z,100968.09
2023-03-29T13:41:23.504Z,100961.03
2023-03-29T13:43:56.711Z,100974.94
2023-03-29T13:46:36.646Z,100974.03
2023-03-29T13:49:27.418Z,100972.34
2023-03-29T13:52:57.290Z,100969.75
2023-03-29T13:55:31.569Z,100987.34
2023-03-29T13:58:22.960Z,100990.91
2023-03-29T14:00:57.180Z,100996.16
2023-03-29T14:03:31.858Z,100990.84
2023-03-29T14:06:04.875Z,100987.31
2023-03-29T14:08:41.204Z,100984.72
2023-03-29T14:11:28.723Z,100995.31
2023-03-29T14:14:01.130Z,100994.47
2023-03-29T14:16:32.045Z,100992.75
2023-03-29T14:19:02.445Z,100998.88
2023-03-29T14:21:34.733Z,101003.25
2023-03-29T14:24:03.279Z,100998.00
2023-03-29T14:26:33.411Z,100991.00
2023-03-29T14:29:15.949Z,100997.16
2023-03-29T14:31:43.419Z,100997.16
2023-03-29T14:34:18.785Z,100994.50
2023-03-29T14:36:48.970Z,100987.53
2023-03-29T14:39:20.106Z,100993.66
2023-03-29T14:42:01.697Z,100991.91
2023-03-29T14:44:35.395Z,101006.78
2023-03-29T14:47:03.732Z,100991.91
2023-03-29T14:49:32.055Z,101001.53
2023-03-29T14:52:00.742Z,101014.63
2023-03-29T14:54:34.820Z,101027.78
2023-03-29T14:57:08.342Z,101026.00
2023-03-29T14:59:37.075Z,101028.63
2023-03-29T15:02:21.878Z,101041.69
2023-03-29T15:05:04.891Z,101033.84
2023-03-29T15:07:40.207Z,101046.06
2023-03-29T15:10:08.316Z,101039.94
2023-03-29T15:13:02.544Z,101033.81
2023-03-29T15:15:33.038Z,101046.06
2023-03-29T15:18:02.033Z,101052.16
2023-03-29T15:20:36.668Z,101045.19
2023-03-29T15:23:21.349Z,101053.91
2023-03-29T15:26:12.471Z,101057.41
2023-03-29T15:28:55.631Z,101067.88
2023-03-29T15:31:35.537Z,101059.13
2023-03-29T15:34:12.685Z,101080.13
2023-03-29T15:36:45.467Z,101079.22
2023-03-29T15:39:18.037Z,101077.47
2023-03-29T15:41:47.985Z,101076.59
2023-03-29T15:44:19.678Z,101074.84
2023-03-29T15:47:00.091Z,101077.50
2023-03-29T15:49:27.812Z,101076.59
2023-03-29T15:51:54.973Z,101091.44
2023-03-29T15:54:26.755Z,101094.91
2023-03-29T15:57:04.737Z,101076.56
2023-03-29T15:59:32.907Z,101092.28
2023-03-29T16:02:00.723Z,101100.13
2023-03-29T16:04:28.193Z,101106.25
2023-03-29T16:06:56.136Z,101098.38
2023-03-29T16:09:23.978Z,101094.88
2023-03-29T16:11:53.508Z,101099.22
2023-03-29T16:14:27.929Z,101104.47
2023-03-29T16:17:00.746Z,101104.47
2023-03-29T16:19:29.608Z,101121.06
2023-03-29T16:21:58.017Z,101117.56
2023-03-29T16:24:27.683Z,101114.06
2023-03-29T16:26:56.548Z,101114.91
2023-03-29T16:29:26.089Z,101124.50
2023-03-29T16:31:55.502Z,101121.03
2023-03-29T16:34:25.813Z,101121.91
2023-03-29T16:36:53.402Z,101115.78
2023-03-29T16:39:21.875Z,101124.47
2023-03-29T16:41:51.961Z,101120.06
2023-03-29T16:44:26.662Z,101127.88
2023-03-29T16:47:00.848Z,101128.72
2023-03-29T16:49:30.969Z,101147.03
2023-03-29T16:52:02.064Z,101150.56
2023-03-29T16:54:31.834Z,101149.69
2023-03-29T16:57:03.071Z,101148.78
2023-03-29T16:59:30.760Z,101158.41
2023-03-29T17:01:57.789Z,101161.03
2023-03-29T17:04:26.812Z,101167.16
2023-03-29T17:06:53.846Z,101173.34
2023-03-29T17:09:21.301Z,101176.81
2023-03-29T17:11:49.767Z,101165.47
2023-03-29T17:14:17.305Z,101157.59
2023-03-29T17:16:48.366Z,101172.38
2023-03-29T17:19:17.637Z,101175.84
2023-03-29T17:21:45.072Z,101174.97
2023-03-29T17:24:12.409Z,101178.47
2023-03-29T17:26:39.968Z,101177.56
2023-03-29T17:29:07.956Z,101179.31
2023-03-29T17:34:24.453Z,101170.59
2023-03-29T17:36:53.577Z,101179.31
2023-03-29T17:39:21.101Z,101188.00
2023-03-29T17:41:49.480Z,101183.59
2023-03-29T17:44:17.087Z,101196.69
2023-03-29T17:46:44.364Z,101194.97
2023-03-29T17:49:14.050Z,101193.22
2023-03-29T17:51:41.789Z,101185.38
2023-03-29T17:54:09.263Z,101200.19
2023-03-29T17:56:36.503Z,101188.81
2023-03-29T17:59:04.164Z,101197.59
2023-03-29T18:01:34.886Z,101208.06
2023-03-29T18:04:41.176Z,101208.13
2023-03-29T18:07:08.251Z,101197.59
2023-03-29T18:09:38.316Z,101203.72
2023-03-29T18:12:05.816Z,101196.75
2023-03-29T18:14:33.427Z,101206.38
2023-03-29T18:17:00.757Z,101205.53
2023-03-29T18:19:29.000Z,101196.78
2023-03-29T18:22:01.002Z,101202.91
2023-03-29T18:24:28.671Z,101202.88
2023-03-29T18:26:56.222Z,101195.00
2023-03-29T18:29:24.168Z,101203.75
2023-03-29T18:31:51.379Z,101193.28
2023-03-29T18:34:33.641Z,101209.00
2023-03-29T18:37:01.412Z,101212.50
2023-03-29T18:39:30.909Z,101214.22
2023-03-29T18:41:58.402Z,101201.13
2023-03-29T18:44:27.509Z,101219.47
2023-03-29T18:46:55.120Z,101218.56
2023-03-29T18:49:22.463Z,101215.09
2023-03-29T18:51:50.146Z,101209.84
2023-03-29T18:54:18.297Z,101213.34
2023-03-29T18:56:45.800Z,101212.47
2023-03-29T18:59:13.077Z,101208.97
2023-03-29T19:01:41.359Z,101218.56
2023-03-29T19:04:08.509Z,101214.22
2023-03-29T19:06:37.506Z,101219.44
2023-03-29T19:09:05.405Z,101219.41
2023-03-29T19:11:33.452Z,101222.94
2023-03-29T19:14:09.711Z,101211.56
2023-03-29T19:16:42.308Z,101217.66
2023-03-29T19:19:12.554Z,101218.53
2023-03-29T19:21:42.568Z,101214.13
2023-03-29T19:24:09.687Z,101215.91
2023-03-29T19:26:37.362Z,101220.31
2023-03-29T19:29:05.627Z,101217.69
2023-03-29T19:31:33.894Z,101213.31
2023-03-29T19:34:03.763Z,101215.06
2023-03-29T19:36:32.066Z,101205.50
2023-03-29T19:38:59.953Z,101211.56
2023-03-29T19:41:28.632Z,101205.44
2023-03-29T19:43:56.360Z,101208.06
2023-03-29T19:46:28.056Z,101208.94
2023-03-29T19:48:56.283Z,101207.16
2023-03-29T19:51:24.045Z,101194.06
2023-03-29T19:53:53.941Z,101205.41
2023-03-29T19:56:26.222Z,101212.44
2023-03-29T19:58:53.627Z,101211.56
2023-03-29T20:01:22.813Z,101210.66
2023-03-29T20:03:50.957Z,101207.16
2023-03-29T20:06:20.856Z,101205.41
2023-03-29T20:09:15.556Z,101203.66
2023-03-29T20:11:44.518Z,101203.69
2023-03-29T20:14:11.783Z,101201.94
2023-03-29T20:16:40.668Z,101205.44
2023-03-29T20:19:09.078Z,101209.75
2023-03-29T20:21:39.282Z,101203.66
2023-03-29T20:24:06.619Z,101201.91
2023-03-29T20:26:33.901Z,101206.28
2023-03-29T20:29:01.976Z,101201.91
2023-03-29T20:31:30.351Z,101201.03
2023-03-29T20:33:57.749Z,101207.16
2023-03-29T20:36:26.771Z,101200.19
2023-03-29T20:38:56.303Z,101204.63
2023-03-29T20:41:26.231Z,101209.84
2023-03-29T20:43:59.430Z,101209.81
2023-03-29T20:46:38.117Z,101202.81
2023-03-29T20:49:07.483Z,101208.03
2023-03-29T20:51:35.898Z,101200.19
2023-03-29T20:54:06.247Z,101201.97
2023-03-29T20:56:38.127Z,101193.25
2023-03-29T20:59:06.831Z,101189.75
2023-03-29T21:01:40.556Z,101188.88
2023-03-29T21:04:09.201Z,101201.09
2023-03-29T21:06:39.713Z,101194.16
2023-03-29T21:09:06.697Z,101182.78
2023-03-29T21:11:33.967Z,101194.16
2023-03-29T21:14:01.489Z,101188.91
2023-03-29T21:16:31.278Z,101191.53
2023-03-29T21:19:15.814Z,101182.78
2023-03-29T21:21:47.592Z,101188.91
2023-03-29T21:24:19.611Z,101195.00
2023-03-29T21:27:00.321Z,101191.50
2023-03-29T21:29:27.705Z,101188.06
2023-03-29T21:31:55.518Z,101178.44
2023-03-29T21:34:22.833Z,101180.19
2023-03-29T21:36:50.617Z,101185.44
2023-03-29T21:39:17.619Z,101184.59
2023-03-29T21:41:44.981Z,101181.97
2023-03-29T21:44:12.923Z,101189.78
2023-03-29T21:46:40.598Z,101188.94
2023-03-29T21:49:08.041Z,101188.94
2023-03-29T21:51:35.496Z,101188.09
2023-03-29T21:54:02.659Z,101192.44
2023-03-29T21:56:30.005Z,101192.41
2023-03-29T21:58:57.191Z,101187.16
2023-03-29T22:01:24.668Z,101188.94
2023-03-29T22:03:51.946Z,101200.28
2023-03-29T22:06:20.852Z,101205.53
2023-03-29T22:08:49.597Z,101193.31
2023-03-29T22:11:17.469Z,101202.06
2023-03-29T22:13:46.282Z,101195.94
2023-03-29T22:16:16.893Z,101207.28
2023-03-29T22:18:49.375Z,101188.97
2023-03-29T22:21:28.466Z,101200.31
2023-03-29T22:23:58.190Z,101193.34
2023-03-29T22:26:28.732Z,101188.94
2023-03-29T22:28:57.167Z,101195.06
2023-03-29T22:31:26.031Z,101193.34
2023-03-29T22:33:54.269Z,101201.13
2023-03-29T22:36:27.130Z,101204.63
2023-03-29T22:38:55.494Z,101194.16
2023-03-29T22:41:25.130Z,101194.16
2023-03-29T22:43:53.886Z,101189.78
2023-03-29T22:46:22.434Z,101188.91
2023-03-29T22:48:49.580Z,101200.25
2023-03-29T22:51:17.524Z,101191.53
2023-03-29T22:53:44.701Z,101190.63
2023-03-29T22:56:13.361Z,101201.09
2023-03-29T22:58:40.638Z,101209.84
2023-03-29T23:01:08.768Z,101193.25
2023-03-29T23:03:36.873Z,101195.91
2023-03-29T23:06:04.918Z,101205.50
2023-03-29T23:08:33.832Z,101209.84
2023-03-29T23:11:03.826Z,101214.25
2023-03-29T23:13:31.423Z,101204.63
2023-03-29T23:16:00.350Z,101219.47
2023-03-29T23:18:29.638Z,101214.25
2023-03-29T23:20:59.007Z,101219.50
2023-03-29T23:23:27.085Z,101209.88
2023-03-29T23:25:58.100Z,101221.22
2023-03-29T23:28:30.807Z,101207.28
2023-03-29T23:31:00.765Z,101209.03
2023-03-29T23:33:33.514Z,101209.91
2023-03-29T23:36:05.499Z,101214.28
2023-03-29T23:38:34.310Z,101213.41
2023-03-29T23:41:03.833Z,101209.94
2023-03-29T23:43:33.787Z,101204.69
2023-03-29T23:46:07.054Z,101210.84
2023-03-29T23:48:34.569Z,101216.97
2023-03-29T23:51:03.188Z,101206.50
2023-03-29T23:53:31.632Z,101208.22
2023-03-29T23:56:01.440Z,101215.22
2023-03-29T23:58:28.769Z,101221.31
